首页
METAR-TAF:

METAR-TAF

机场 :

Monticello Municipal Airport/Ellis Field

Monticello, 阿肯色州, 美国

纬度: 33-38-18N, 经度: 091-45-04W, 海拔: 82米

当前天气观测

该预报发布于24分钟前的05:53 UTC
风速5节,风向西
温度 13°C
湿度 82%
气压 1009 hPa
能見度: 16.1公里
天空无云

METAR: KLLQ 260553Z AUTO 27005KT 10SM CLR 13/10 A2979 RMK AO2 SLP085 T01330100 10194 20128 402390128 51020

时间: 00:17 (06:17 UTC)

预报

该预报发布于43分钟前的05:34 UTC
预报有效从26日的 06点(UTC)到 27日的 06点(UTC)
风速5节,风向西转西南
能見度: 10公里
天空无云
从 26日的 1500点(UTC)
风速5节,风向西转西北
能見度: 10公里
天空无云

TAF: KLLQ 260534Z 2606/2706 25005KT P6SM SKC FM261500 30005KT P6SM SKC

超过4000个机场的气象观测和天气预报(METAR&TAF报告)。

可查询的气象台以黄色和红色小点在地图上表示。

将鼠标移到小点上方,可查看气象台名称。

然后点击查看天气观测和预报。

如需切换地图:点击带黑十字的绿色按钮放大地图;点击带横线的绿色按钮缩小地图;或者点击绿色箭头查看邻近地区的地图。


METAR-TAF: